Air Resources Laboratory banner image
Air Resources Laboratory web site National Oceanic and Atmospheric Administration (NOAA)

ca metar


KAAT 200555Z AUTO 28003KT 10SM OVC026 M06/M09 A2999 RMK AO2 SLP189 60003
 T10611094 11028 21067 53010=
KACV 200553Z AUTO 06005KT 10SM CLR 03/M02 A3023 RMK AO2 SLP246 T00281022 10083
 20011 53015=
KAPC 200554Z AUTO 31008KT 10SM CLR 01/M02 A3013 RMK AO2 SLP194 T00061022 10106
 21011 53025=
KAVX 200551Z AUTO 33007G18KT 10SM CLR 08/M07 A3000 RMK AO2 SLP161 T00781067
 10089 20072 51020=
KBAB 200558Z AUTO 00000KT 10SM CLR 00/M05 A3010 RMK AO2 SLP197 T10041047 10106
 21004 52028 $=
KBFL 200554Z 32003KT 10SM CLR 04/M05 A3008 RMK AO2 SLP186 T00441050 10117 20028
 53025=
KBIH 200556Z AUTO 35009KT 10SM OVC090 M03/M18 A2996 RMK AO2 SLP151 T10331178
 10017 21033 53030 $=
KBLH 200552Z AUTO 31006KT 10SM CLR 09/M13 A2994 RMK AO2 SLP138 T00891128 10167
 20089 51033=
KBLU 200552Z AUTO 04005KT 10SM CLR M07/M15 A2996 RMK AO2 SLP198 60003 T10721150
 11039 21072 53018=
KBUR 200553Z 32008KT 10SM CLR 08/M07 A3000 RMK AO2 SLP155 T00781072 10117 20078
 51021=
KBYS 200555Z AUTO 14003KT 10SM CLR 03/M14 A2994 RMK AO2 SLP164 WND DATA ESTMD
 T00311145 10098 20066 53030=
KCCR 200553Z 00000KT 10SM CLR 05/M01 A3014 RMK AO2 SLP191 T00501011 10111 20050
 53026=
KCEC 200556Z AUTO 03006KT 10SM CLR 03/M03 A3028 RMK AO2 SLP255 T00331033 10083
 20028 53019=
KCIC 200555Z AUTO 32007KT 10SM CLR 01/M08 A3012 RMK AO1=
KCMA 200555Z AUTO 05006KT 10SM CLR 07/M08 A3004 RMK AO2 SLP182 T00671078 10150
 20067 53025=
KCNO 200553Z 20003KT 10SM CLR 06/M11 A2999 RMK AO2 SLP156 T00611111 10133 20061
 51022 $=
KCQT 200547Z AUTO 31005KT 10SM -RA CLR 09/M08 A3002 RMK AO2 SLP165 P0000 60000
 T00941083 10122 20094 52023=
KCRQ 200553Z AUTO VRB03KT 10SM CLR 10/M03 A2999 RMK AO2 SLP154 60000 T01001033
 10128 20100 53018=
KCZZ 200552Z AUTO 20008KT 02/M01 A2991 RMK AO1 SLP122 T00221006 10072 20022
 51019=
KDAG 200550Z AUTO 22012KT 10SM CLR 04/M11 A2995 RMK AO2 SLP142 T00391106 10083
 20033 53023=
KEDW 200556Z AUTO 24006KT 10SM CLR 01/M11 A2995 RMK AO2 SLP152 T00081110 10063
 20008 52022=
KEED 200556Z AUTO 32005KT 10SM CLR 08/M11 A2993 RMK AO2 SLP126 T00781106 10144
 20078 53030 $=
KFAT 200553Z 00000KT 10SM CLR 06/M07 A3009 RMK AO2 SLP190 T00561067 10117 20044
 53024=
KFCH 200555Z AUTO 00000KT 10SM 03/M05 A3009 RMK A01=
KFOT 200555Z AUTO 00000KT 10SM BKN039 02/M01 A3023 RMK AO1=
KFUL 200553Z AUTO 30006KT 10SM CLR 10/M08 A3000 RMK AO2 SLP160 60000 T01001083
 10133 20100 51023=
KHHR 200553Z 34005KT 10SM CLR 10/M08 A3002 RMK AO2 SLP167 60000 T01001083 10139
 20100 51021=
KHJO 200553Z AUTO 26003KT 10SM CLR 04/M05 A3010 RMK AO2 SLP196 T00391050 10122
 20039 53024=
KHWD 200554Z AUTO 08003KT 10SM CLR 05/M02 A3013 RMK AO2 SLP212 60000 T00501017
 10111 20050 53024=
KIPL 200553Z AUTO 27007KT 10SM CLR 09/M01 A2996 RMK AO2 SLP146 T00941011 10167
 20094 53030=
KIZA 200555Z AUTO 32006KT 10SM CLR 05/00 A3006 RMK AO2=
KLAX 200553Z 34008G15KT 10SM CLR 10/M08 A3002 RMK AO2 SLP164 60000 T01001083
 10139 20100 51021=
KLGB 200553Z 35014G19KT 10SM CLR 10/M08 A3001 RMK AO2 SLP163 60003 T01001078
 10144 20100 51021 $=
KLPC 200556Z AUTO 34007KT 10SM CLR 08/01 A3010 RMK AO2 SLP196 T00780011 10111
 20078 53022=
KLVK 200553Z AUTO 00000KT 10SM CLR 04/M02 A3012 RMK AO2 SLP200 T00391017 10111
 20028 53025=
KMAE 200553Z AUTO 00000KT 10SM CLR 03/M04 A3010 RMK AO2 SLP192 T00281044 10117
 20000 53023 $=
KMCC 200555Z AUTO 00000KT 10SM CLR 01/M05 A3013 RMK AO2=
KMCE 200553Z AUTO 31006KT 10SM CLR 03/M08 A3008 RMK AO2 SLP188 T00331078 10111
 20022 53021=
KMER 200555Z AUTO 27006KT 10SM CLR 01/M05 A3009 RMK AO1=
KMHR 200545Z 21004KT 10SM FEW100 00/M03 A3011=
KMHS 200556Z AUTO VRB03KT 10SM CLR M05/M11 A3006 RMK AO2 SLP225 T10501111 10000
 21050 51016=
KMHV 200540Z AUTO 31027G34KT 10SM CLR 02/M14 A2991 RMK A01=
KMMH 200555Z AUTO 29006KT 10SM SCT047 OVC050 M10/M16 A2987 RMK AO2 T11051160
 11067 21105 410471113=
KMOD 200553Z AUTO 30005KT 10SM CLR 06/M06 A3010 RMK AO2 SLP192 T00611056 10111
 20050 51024=
KMRY 200554Z AUTO 31009KT 10SM FEW031 08/02 A3013 RMK AO2 SLP216 T00830017
 10100 20083 53021=
KMYF 200553Z AUTO 25003KT 10SM SCT075 09/02 A3000 RMK AO2 PK WND 32027/0503
 RAB04E22 SLP156 P0000 60000 T00940022 10133 20094 53013=
KMYV 200553Z AUTO 07003KT 10SM CLR 02/M05 A3012 RMK AO2 SLP205 T00221050 10111
 20022 53027=
KNFG 200555Z AUTO 34003KT 10SM CLR 06/M02 A3000 RMK AO2 SLP159 T00561022 10128
 20056 53020=
KNID 200556Z AUTO 30007KT 10SM CLR 03/M14 A2993 RMK AO2 SLP145 T00281139 10083
 20022 51032=
KNJK 200556Z AUTO 26012KT 10SM CLR 10/M02 A2999 RMK AO2 SLP169 60000 T01001022
 10167 20100 53024=
KNKX 200555Z 00000KT 10SM FEW075 09/03 A2999 RMK AO2 PK WND 29028/0456 WSHFT
 0449 RAB0456E13 SLP153 P0000 60000 T00890028 10150 20089 53014 $=
KNLC 200556Z AUTO 24006KT 10SM CLR 01/M07 A3010 RMK AO2 SLP195 T00111072 10122
 20011 53024=
KNRS 200556Z AUTO 36008KT 12/03 A3001 RMK AO2 WSHFT 0528 RAE25 SLP163 P0000
 60000 T01170033 10139 20100 53011 $=
KNSI 200557Z AUTO 32022G28KT 10SM FEW031 09/01 A3005 RMK AO2 PK WND 30031/0542
 SLP173 T00940011 10117 20094 53020 $=
KNTD 200558Z AUTO 02005KT 10SM CLR 07/M04 A3005 RMK AO2 SLP178 T00721039 10144
 20061 53024 PWINO $=
KNUQ 200556Z 28005KT 10SM CLR 07/00 A3014 RMK AO2 SLP209 T00720000 10106 20072
 53026=
KNXP 200556Z AUTO 31015KT 10SM CLR 04/M14 A3001 RMK AO2 SLP150 T00391139 10089
 20039 53023=
KOAK 200553Z 34009G17KT 10SM CLR 07/M02 A3014 RMK AO2 SLP205 60000 T00671022
 10106 20067 53024=
KOKB 200552Z AUTO 36003KT 10SM CLR 08/M03 A3000 RMK AO2 SLP157 T00781033 10139
 20078 53019=
KONT 200553Z 00000KT 10SM FEW055 07/M12 A2997 RMK AO2 SLP150 T00671122 10111
 20067 51021=
KOVE 200553Z AUTO 04005KT 10SM CLR 03/M06 A3012 RMK AO2 SLP202 T00331056 10111
 20028 53026=
KOXR 200551Z AUTO 34006KT 10SM CLR 09/M07 A3004 RMK AO2 SLP171 T00891072 10144
 20072 53023=
KPMD 200553Z AUTO 26010KT 10SM CLR 02/M11 A2998 RMK AO2 SLP159 T00171111 10061
 20011 53020=
KPRB 200553Z AUTO 30006KT 10SM CLR 03/M03 A3008 RMK AO2 SLP189 T00281028 10122
 20022 51022=
KPSP 200553Z VRB05KT 10SM CLR 09/M01 A2997 RMK AO2 SLP149 T00941011 10150 20083
 51032 $=
KPTV 200556Z AUTO 12005KT 10SM CLR M01/M04 A3010 RMK AO2 SLP209 T10061039 10106
 21006 53025 FZRANO=
KRAL 200553Z AUTO 17005KT 10SM CLR 06/M09 A2998 RMK AO2 SLP145 T00611094 10122
 20056 51024=
KRBL 200554Z AUTO 32008KT 10SM CLR 04/M06 A3014 RMK AO2 SLP207 T00441056 10117
 20028 51029=
KRDD 200553Z AUTO 34004KT 10SM CLR 02/M11 A3013 RMK AO2 SLP205 T00221106 10111
 20017 51027=
KRHV 200552Z 00000KT 10SM SCT040 06/00 A3012 RMK LAST=
KRIV 200558Z AUTO 00000KT 10SM CLR 03/M13 A2997 RMK AO2 SLP152 T00301133 10098
 20026 52022=
KRNM 200553Z AUTO 04005KT 10SM SCT034 04/03 A2997 RMK AO2 SLP149 60001
 T00390028 10100 20028 53016=
KSAC 200553Z AUTO 00000KT 10SM CLR 03/M04 A3012 RMK AO2 SLP200 T00281044 10111
 20028 53027 $=
KSAN 200551Z 33003KT 10SM FEW045 FEW060 BKN080 11/02 A3002 RMK AO2 RAB08E25
 SLP164 VCSH P0000 60000 T01110017 10144 20111 53011=
KSBA 200553Z 01005KT 10SM CLR 08/M01 A3006 RMK AO2 SLP178 T00781011 10133 20078
 53023=
KSBD 200600Z AUTO 35011G16KT 10SM CLR 08/M13 A2998 RMK AO2 T00791133=
KSBP 200556Z 32006KT 10SM CLR 06/M03 A3010 RMK AO2 SLP194 T00561028 10117 20056
 51024=
KSCK 200555Z 30007KT 10SM CLR 02/M07 A3011 RMK AO2 SLP196 T00221067 10128 20022
 53025=
KSDB 200553Z AUTO 36006G16KT 10SM SCT036 OVC055 M03/M08 A2995 RMK AO2 SLP152
 60000 T10331083 11006 21039 53020=
KSDM 200553Z AUTO 01004KT 10SM -RA FEW042 BKN050 OVC075 09/03 A3000 RMK AO2
 RAB05E15B48 SLP158 P0000 60002 T00940028 10128 20083 53013=
KSEE 200555Z AUTO 28004KT 10SM FEW065 BKN075 OVC085 10/00 A2999 RMK AO2=
KSFO 200556Z 33009KT 10SM FEW090 08/M02 A3014 RMK AO2 SLP206 T00831022 10111
 20078 53024 $=
KSIY 200553Z AUTO 00000KT 10SM CLR M07/M12 A3014 RMK AO2 SLP242 T10721117 10011
 21078 53011=
KSJC 200553Z 22003KT 10SM CLR 07/00 A3013 RMK AO2 SLP203 T00720000 10117 20072
 53026=
KSMF 200553Z 02005KT 10SM CLR 01/M06 A3012 RMK AO2 SLP198 T00061056 10106 20000
 53026=
KSMO 200551Z AUTO VRB03KT 10SM CLR 09/M08 A3003 RMK AO2 SLP169 T00891083 10128
 20089 53023=
KSMX 200551Z AUTO 32004KT 10SM FEW070 05/01 A3009 RMK AO2 SLP195 T00500006
 10117 20039 53023 $=
KSNA 200553Z 33007G15KT 10SM FEW039 11/M09 A3001 RMK AO2 SLP162 60000 T01061089
 10133 20106 51024=
KSNS 200553Z AUTO 23004KT 10SM CLR 07/01 A3013 RMK AO2 SLP211 T00670006 10111
 20050 53025=
KSQL 200555Z AUTO 30005KT 10SM CLR 07/M01 A3014 RMK AO2=
KSTS 200553Z AUTO 33007KT 10SM CLR 04/M03 A3013 RMK AO2 SLP197 T00391033 10111
 20033 51024 $=
KSUU 200558Z AUTO 23003KT 10SM CLR 00/M04 A3010 RMK AO2 SLP200 T00041042 10106
 21006 52023 $=
KSVE 200555Z AUTO 24004KT 10SM CLR M06/M12 A3002 RMK AO2=
KTRK 200555Z AUTO 00000KT 10SM CLR M15/M17 A2995 RMK AO2=
KTRM 200552Z AUTO 34005KT 10SM FEW090 11/M06 A2995 RMK AO2 SLP141 T01061056
 10167 20106 51024=
KTVL 200553Z AUTO 00000KT 10SM OVC050 M08/M17 A2990 RMK AO2 SLP167 60000
 T10831167 11050 21083 53023=
KUKI 200556Z AUTO 00000KT 10SM CLR 02/M05 A3016 RMK AO2 SLP214 T00171050 10094
 20017 51023=
KVBG 200558Z AUTO 35016KT 10SM FEW035 08/01 A3009 RMK AO2 PK WND 33027/32
 SLP194 T00800006 10108 20079 52020 CHINO RWY12=
KVCB 200553Z AUTO 30007KT 10SM CLR 07/M04 A3013 RMK AO2 SLP201 T00671044 10111
 20028 53023 $=
KVCV 200555Z AUTO 25012KT 10SM CLR 00/M13 A2995 RMK AO2=
KVIS 200556Z AUTO 26004KT 10SM CLR 03/M04 A3010 RMK AO2 SLP201 T00281044 10100
 20022 53024=
KVNY 200551Z 34014G19KT 10SM CLR 08/M09 A3001 RMK AO2 SLP162 T00781089 10106
 20072 53022=
KWJF 200556Z AUTO 29010KT 10SM CLR 01/M09 A2998 RMK AO2 SLP167 T00061094 10061
 20006 53019=
KWVI 200553Z AUTO 33003KT 9SM CLR 03/M01 A3012 RMK AO2 SLP201 T00331006 10106
 20033 53021=